Time;durP1;ratioP1;P1;durP2;ratioP2;P2;SDS_P1;SDS_P2;PMS_P1;PMS_P2;Temp;Humidity;BMP_temperature;BMP_pressure;BME280_temperature;BME280_humidity;BME280_pressure;Samples;Min_cycle;Max_cycle;Signal;HPM_P1;HPM_P2
2022/06/22 00:00:37;;;;;;;12.43;8.85;;;11.30;99.90;;;;;;6171216;23;20024;-93
2022/06/22 00:03:07;;;;;;;10.77;9.27;;;11.30;99.90;;;;;;6169498;23;20008;-93
2022/06/22 00:05:38;;;;;;;13.63;10.52;;;11.30;99.90;;;;;;6169615;23;20008;-93
2022/06/22 00:08:11;;;;;;;13.15;10.05;;;11.20;99.90;;;;;;6170656;23;20402;-94
2022/06/22 00:10:44;;;;;;;10.07;8.43;;;10.40;99.90;;;;;;6176379;23;20048;-95
2022/06/22 00:13:23;;;;;;;12.23;8.75;;;11.10;99.90;;;;;;6180552;23;20013;-93
2022/06/22 00:15:51;;;;;;;10.68;9.57;;;11.20;99.90;;;;;;6199318;23;20012;-93
2022/06/22 00:18:39;;;;;;;11.52;10.13;;;11.10;99.90;;;;;;6179174;23;20013;-94
2022/06/22 00:21:20;;;;;;;11.63;9.93;;;11.20;99.90;;;;;;6177071;23;20047;-93
2022/06/22 00:23:53;;;;;;;13.52;10.75;;;11.10;99.90;;;;;;6170612;23;20012;-94
2022/06/22 00:26:25;;;;;;;13.13;10.73;;;11.00;99.90;;;;;;6180716;23;20017;-93
2022/06/22 00:29:14;;;;;;;13.63;10.95;;;11.10;99.90;;;;;;6170576;23;20381;-93
2022/06/22 00:31:58;;;;;;;13.25;10.95;;;11.00;99.90;;;;;;6157087;23;20012;-93
2022/06/22 00:34:27;;;;;;;13.05;9.75;;;10.90;99.90;;;;;;6174002;23;20443;-93
2022/06/22 00:37:05;;;;;;;10.23;9.23;;;10.90;99.90;;;;;;6178646;23;20044;-93
2022/06/22 00:39:31;;;;;;;41.60;10.77;;;10.90;99.90;;;;;;6188648;23;20017;-92
2022/06/22 00:42:24;;;;;;;9.88;8.80;;;10.80;99.90;;;;;;6193370;23;20008;-93
2022/06/22 00:45:02;;;;;;;10.13;9.05;;;11.00;99.90;;;;;;6188151;23;20047;-93
2022/06/22 00:47:32;;;;;;;9.52;8.52;;;11.10;99.90;;;;;;6180279;23;20043;-89
2022/06/22 00:50:12;;;;;;;25.85;8.70;;;10.90;99.90;;;;;;6172941;23;20036;-90
2022/06/22 00:52:43;;;;;;;13.90;6.72;;;10.80;99.90;;;;;;6168875;23;20012;-89
2022/06/22 00:55:31;;;;;;;97.63;8.90;;;10.70;99.90;;;;;;6169418;23;20063;-89
2022/06/22 00:58:15;;;;;;;20.02;6.43;;;10.60;99.90;;;;;;6170362;23;20023;-89
2022/06/22 01:00:51;;;;;;;10.68;6.60;;;10.40;99.90;;;;;;6185552;23;20070;-89
2022/06/22 01:03:22;;;;;;;10.75;7.38;;;10.50;99.90;;;;;;6188693;23;20048;-90
2022/06/22 01:06:04;;;;;;;7.85;7.03;;;10.50;99.90;;;;;;6180913;23;20016;-89
2022/06/22 01:08:46;;;;;;;11.85;9.15;;;10.50;99.90;;;;;;6177300;23;20034;-89
2022/06/22 01:14:19;;;;;;;13.70;10.32;;;10.60;99.90;;;;;;6198274;23;20070;-89
2022/06/22 01:16:49;;;;;;;12.00;9.98;;;10.80;99.90;;;;;;6174918;23;20040;-89
2022/06/22 01:19:25;;;;;;;16.33;12.85;;;10.80;99.90;;;;;;6170753;23;20040;-89
2022/06/22 01:22:26;;;;;;;15.68;10.95;;;10.80;99.90;;;;;;6170298;23;20044;-89
2022/06/22 01:25:11;;;;;;;13.07;10.27;;;10.90;99.90;;;;;;6173045;23;20016;-89
2022/06/22 01:27:40;;;;;;;16.33;10.90;;;10.80;99.90;;;;;;6169036;23;20328;-89
2022/06/22 01:30:34;;;;;;;18.13;12.38;;;10.80;99.90;;;;;;6168404;23;20279;-89
2022/06/22 01:33:06;;;;;;;14.82;11.75;;;10.80;99.90;;;;;;6168058;23;20022;-90
2022/06/22 01:35:34;;;;;;;17.38;12.25;;;10.80;99.90;;;;;;6167539;23;20312;-90
2022/06/22 01:38:30;;;;;;;13.90;10.20;;;10.80;99.90;;;;;;6143014;23;20436;-90
2022/06/22 01:41:16;;;;;;;17.38;11.85;;;10.80;99.90;;;;;;6167194;23;20013;-90
2022/06/22 01:44:14;;;;;;;17.02;11.48;;;10.80;99.90;;;;;;6168053;23;20016;-89
2022/06/22 01:47:13;;;;;;;14.65;11.55;;;10.80;99.90;;;;;;6133454;23;20055;-90
2022/06/22 01:49:58;;;;;;;14.48;11.15;;;10.80;99.90;;;;;;6168674;23;20020;-90
2022/06/22 01:52:40;;;;;;;17.48;11.63;;;10.70;99.90;;;;;;6176106;23;20024;-90
2022/06/22 01:55:44;;;;;;;15.48;10.75;;;10.70;99.90;;;;;;6175987;23;20017;-90
2022/06/22 01:58:19;;;;;;;16.45;12.50;;;10.70;99.90;;;;;;6168314;23;20017;-90
2022/06/22 02:00:54;;;;;;;16.50;12.60;;;10.70;99.90;;;;;;6167475;23;20335;-90
2022/06/22 02:03:52;;;;;;;17.00;11.93;;;10.70;99.90;;;;;;6176457;23;20103;-90
2022/06/22 02:09:21;;;;;;;11.32;9.25;;;10.70;99.90;;;;;;6193264;23;20032;-89
2022/06/22 02:12:18;;;;;;;9.00;7.07;;;10.70;99.90;;;;;;6170994;23;20017;-89
2022/06/22 02:14:44;;;;;;;8.90;7.40;;;10.40;99.90;;;;;;6194567;23;20027;-90
2022/06/22 02:17:14;;;;;;;8.57;7.38;;;10.00;99.90;;;;;;6167682;23;20015;-90
2022/06/22 02:19:42;;;;;;;9.00;6.30;;;9.90;99.90;;;;;;6176796;23;20008;-89
2022/06/22 02:22:12;;;;;;;9.20;7.93;;;9.80;99.90;;;;;;6177227;23;20328;-90
2022/06/22 02:24:47;;;;;;;9.73;6.93;;;9.70;99.90;;;;;;6173232;23;20412;-89
2022/06/22 02:27:19;;;;;;;8.00;6.07;;;9.50;99.90;;;;;;6152627;23;20019;-90
2022/06/22 02:29:49;;;;;;;9.80;7.30;;;9.50;99.90;;;;;;6173673;23;20016;-90
2022/06/22 02:32:44;;;;;;;8.52;7.70;;;9.50;99.90;;;;;;6175139;23;20020;-90
2022/06/22 02:35:12;;;;;;;8.00;6.55;;;9.50;99.90;;;;;;6173599;23;20013;-90
2022/06/22 02:37:51;;;;;;;8.27;7.32;;;9.60;99.90;;;;;;6147432;23;20020;-90
2022/06/22 02:40:21;;;;;;;10.50;8.15;;;9.60;99.90;;;;;;6168008;23;20091;-90
2022/06/22 02:45:32;;;;;;;10.73;9.60;;;10.00;99.90;;;;;;6151476;23;20021;-90
2022/06/22 02:48:19;;;;;;;12.00;9.57;;;10.20;99.90;;;;;;6146038;23;20328;-90
2022/06/22 02:51:08;;;;;;;12.10;10.07;;;10.20;99.90;;;;;;6171584;23;20025;-90
2022/06/22 02:53:40;;;;;;;9.27;8.30;;;10.20;99.90;;;;;;6176409;23;20021;-90
2022/06/22 02:56:16;;;;;;;9.05;7.43;;;9.90;99.90;;;;;;6171116;23;20048;-90
2022/06/22 02:58:45;;;;;;;10.38;8.93;;;9.80;99.90;;;;;;6170332;23;20021;-89
2022/06/22 03:01:19;;;;;;;11.02;9.00;;;9.90;99.90;;;;;;6169972;23;20016;-90
2022/06/22 03:03:52;;;;;;;11.20;9.68;;;10.00;99.90;;;;;;6180038;23;20020;-90
2022/06/22 03:06:24;;;;;;;13.27;9.68;;;10.20;99.90;;;;;;6185068;23;20063;-90
2022/06/22 03:08:52;;;;;;;13.55;9.93;;;10.20;99.90;;;;;;6172476;23;20016;-90
2022/06/22 03:11:18;;;;;;;10.80;9.40;;;10.20;99.90;;;;;;6154289;23;20045;-90
2022/06/22 03:14:22;;;;;;;10.15;7.68;;;10.10;99.90;;;;;;6145963;23;20017;-90
2022/06/22 03:16:53;;;;;;;8.43;6.80;;;9.90;99.90;;;;;;6170008;23;20012;-90
2022/06/22 03:19:42;;;;;;;5.95;5.35;;;9.80;99.90;;;;;;6168286;23;20043;-90
2022/06/22 03:22:20;;;;;;;5.70;5.15;;;9.60;99.90;;;;;;6166888;23;20036;-89
2022/06/22 03:25:24;;;;;;;10.55;6.05;;;9.00;99.90;;;;;;6167147;23;20020;-90
2022/06/22 03:28:08;;;;;;;21.85;5.90;;;8.40;99.90;;;;;;6097732;23;20436;-89
2022/06/22 03:30:58;;;;;;;77.07;8.45;;;8.30;99.90;;;;;;6159415;23;20074;-90
2022/06/22 03:33:38;;;;;;;20.05;7.63;;;8.40;99.90;;;;;;6169356;23;20020;-90
2022/06/22 03:36:21;;;;;;;34.25;8.07;;;8.40;99.90;;;;;;6173683;23;20016;-90
2022/06/22 03:39:04;;;;;;;44.80;8.50;;;8.30;99.90;;;;;;6171342;23;20009;-90
2022/06/22 03:41:35;;;;;;;144.70;12.13;;;8.30;99.90;;;;;;6174741;23;20018;-90
2022/06/22 03:44:18;;;;;;;113.63;10.30;;;8.30;99.90;;;;;;6174634;23;20016;-89
2022/06/22 03:47:06;;;;;;;47.83;8.73;;;8.30;99.90;;;;;;6167524;23;20017;-90
2022/06/22 03:49:39;;;;;;;29.90;7.00;;;8.30;99.90;;;;;;6172597;23;20016;-90
2022/06/22 03:52:17;;;;;;;58.75;7.68;;;8.30;99.90;;;;;;6175810;23;20016;-90
2022/06/22 03:55:14;;;;;;;32.63;8.18;;;8.50;99.90;;;;;;6167932;23;20151;-89
2022/06/22 03:57:45;;;;;;;43.28;7.47;;;8.60;99.90;;;;;;6181893;23;20024;-90
2022/06/22 04:00:14;;;;;;;23.00;6.97;;;8.60;99.90;;;;;;6189090;23;20008;-90
2022/06/22 04:02:41;;;;;;;9.25;8.07;;;8.60;99.90;;;;;;6170475;23;20017;-90
2022/06/22 04:05:43;;;;;;;11.23;8.88;;;8.80;99.90;;;;;;6172556;23;20024;-89
2022/06/22 04:08:30;;;;;;;9.23;7.88;;;8.90;99.90;;;;;;6150601;23;20023;-89
2022/06/22 04:11:06;;;;;;;45.78;8.75;;;9.20;99.90;;;;;;6182135;23;20017;-89
2022/06/22 04:13:43;;;;;;;62.45;7.03;;;9.30;99.90;;;;;;6182377;23;20024;-89
2022/06/22 04:16:21;;;;;;;44.60;6.35;;;9.20;99.90;;;;;;6174874;23;20436;-89
2022/06/22 04:18:58;;;;;;;57.20;7.78;;;8.90;99.90;;;;;;6168728;23;20013;-89
2022/06/22 04:21:30;;;;;;;39.90;7.13;;;9.30;99.90;;;;;;6167837;23;20017;-89
2022/06/22 04:24:22;;;;;;;37.97;6.38;;;9.40;99.90;;;;;;6168947;23;20012;-90
2022/06/22 04:26:54;;;;;;;9.95;6.40;;;9.50;99.90;;;;;;6168804;23;20020;-90
2022/06/22 04:29:28;;;;;;;11.05;6.82;;;9.60;99.90;;;;;;6168077;23;20366;-90
2022/06/22 04:32:13;;;;;;;28.90;7.72;;;9.70;99.90;;;;;;6165952;23;20016;-90
2022/06/22 04:34:46;;;;;;;22.13;7.95;;;9.90;99.90;;;;;;6166443;23;20515;-89
2022/06/22 04:37:42;;;;;;;15.73;7.10;;;9.80;99.90;;;;;;6169234;23;20017;-89
2022/06/22 04:40:13;;;;;;;37.60;8.02;;;9.50;99.90;;;;;;6200913;23;20012;-89
2022/06/22 04:42:41;;;;;;;165.68;13.63;;;10.10;99.90;;;;;;6185542;23;20020;-92
2022/06/22 04:45:36;;;;;;;213.18;16.15;;;10.20;99.90;;;;;;6204212;23;20016;-92
2022/06/22 04:48:13;;;;;;;129.95;12.52;;;10.30;99.90;;;;;;6188710;23;20025;-90
2022/06/22 04:50:44;;;;;;;146.30;13.83;;;10.50;99.90;;;;;;6181087;23;20043;-92
2022/06/22 04:53:26;;;;;;;38.00;9.93;;;10.60;99.90;;;;;;6174221;23;20250;-92
2022/06/22 04:55:53;;;;;;;19.45;8.75;;;10.80;99.90;;;;;;6174802;23;20012;-91
2022/06/22 04:58:40;;;;;;;57.90;10.85;;;10.90;99.90;;;;;;6169595;23;20074;-91
2022/06/22 05:01:06;;;;;;;10.02;9.00;;;11.10;99.90;;;;;;6169895;23;20098;-91
2022/06/22 05:03:34;;;;;;;10.75;8.80;;;11.20;99.90;;;;;;6129659;23;20016;-92
2022/06/22 05:06:07;;;;;;;9.50;8.32;;;11.20;99.90;;;;;;6171829;23;20068;-93
2022/06/22 05:08:54;;;;;;;12.27;8.93;;;11.40;99.90;;;;;;6171751;23;20099;-91
2022/06/22 05:11:31;;;;;;;12.23;8.57;;;11.40;99.90;;;;;;6171085;23;20022;-91
2022/06/22 05:13:59;;;;;;;10.43;8.60;;;11.50;99.90;;;;;;6174319;23;20036;-90
2022/06/22 05:16:28;;;;;;;13.98;9.40;;;11.40;99.90;;;;;;6171620;23;20048;-90
2022/06/22 05:18:56;;;;;;;16.70;11.30;;;11.50;99.90;;;;;;6171944;23;20043;-89
2022/06/22 05:21:43;;;;;;;17.13;10.77;;;11.70;99.90;;;;;;6176551;23;20394;-90
2022/06/22 05:24:15;;;;;;;17.27;10.95;;;11.80;99.90;;;;;;6174972;23;20020;-90
2022/06/22 05:26:42;;;;;;;19.30;11.93;;;11.90;99.90;;;;;;6181077;23;20001;-89
2022/06/22 05:29:31;;;;;;;18.52;11.52;;;12.00;99.90;;;;;;6160372;23;20095;-89
2022/06/22 05:32:02;;;;;;;15.20;10.95;;;11.60;99.90;;;;;;6169456;23;20024;-89
2022/06/22 05:34:34;;;;;;;13.50;10.65;;;12.30;99.90;;;;;;6173068;23;20079;-89
2022/06/22 05:37:12;;;;;;;12.63;9.85;;;12.50;99.90;;;;;;6170110;23;20016;-89
2022/06/22 05:39:39;;;;;;;14.25;11.27;;;12.60;99.90;;;;;;6170003;23;20016;-89
2022/06/22 05:42:06;;;;;;;15.75;11.20;;;12.80;99.90;;;;;;6171508;23;20342;-89
2022/06/22 05:44:43;;;;;;;16.77;12.05;;;13.00;99.90;;;;;;6149861;23;20022;-90
2022/06/22 05:47:20;;;;;;;16.23;13.07;;;13.00;99.90;;;;;;6147436;23;20016;-90
2022/06/22 05:49:55;;;;;;;18.60;12.88;;;13.00;99.90;;;;;;6175402;23;20043;-90
2022/06/22 05:52:37;;;;;;;15.27;12.27;;;13.10;99.90;;;;;;6166089;23;20084;-90
2022/06/22 05:55:19;;;;;;;18.55;12.40;;;13.20;99.90;;;;;;6166428;23;20017;-90
2022/06/22 05:57:56;;;;;;;16.73;12.70;;;13.40;99.90;;;;;;6168348;23;20096;-90
2022/06/22 06:00:28;;;;;;;17.20;12.95;;;13.50;99.90;;;;;;6164833;23;20023;-90
2022/06/22 06:03:24;;;;;;;19.42;13.65;;;13.60;99.90;;;;;;6175951;23;20028;-90
2022/06/22 06:06:01;;;;;;;18.17;12.95;;;14.50;99.90;;;;;;6141093;23;20016;-90
2022/06/22 06:08:56;;;;;;;17.42;14.27;;;13.70;99.90;;;;;;6173201;23;20059;-90
2022/06/22 06:14:26;;;;;;;16.98;13.75;;;13.80;99.90;;;;;;6174975;23;20067;-91
2022/06/22 06:16:56;;;;;;;19.30;12.80;;;14.00;99.90;;;;;;6170213;23;20400;-90
2022/06/22 06:19:29;;;;;;;16.25;12.68;;;13.50;99.90;;;;;;6170448;23;20080;-90
2022/06/22 06:21:59;;;;;;;17.50;12.43;;;14.30;99.90;;;;;;6171483;23;20013;-90
2022/06/22 06:24:30;;;;;;;14.65;10.82;;;14.40;99.90;;;;;;6170232;23;20016;-90
2022/06/22 06:30:15;;;;;;;;;;;14.60;99.90;;;;;;6191569;23;20056;-90
2022/06/22 06:32:47;;;;;;;12.25;10.45;;;15.00;99.90;;;;;;6173740;23;19912;-90
2022/06/22 06:35:24;;;;;;;11.30;9.10;;;15.10;99.90;;;;;;6167505;23;20024;-91
2022/06/22 06:38:14;;;;;;;12.88;9.45;;;15.20;99.90;;;;;;6175574;23;20015;-89
2022/06/22 06:40:49;;;;;;;12.60;9.02;;;15.40;99.90;;;;;;6172636;23;20017;-90
2022/06/22 06:43:38;;;;;;;11.70;8.27;;;15.60;99.90;;;;;;6166179;23;20352;-90
2022/06/22 06:46:30;;;;;;;13.55;9.10;;;15.90;99.90;;;;;;6170630;23;20012;-91
2022/06/22 06:49:14;;;;;;;13.93;9.05;;;16.10;99.90;;;;;;6171813;23;20087;-91
2022/06/22 06:51:46;;;;;;;13.25;8.32;;;16.40;99.90;;;;;;6167014;23;20072;-90
2022/06/22 06:54:21;;;;;;;12.80;7.88;;;16.80;99.90;;;;;;6167564;23;20095;-91
2022/06/22 06:56:59;;;;;;;12.88;8.55;;;16.90;99.90;;;;;;6170742;23;20012;-90
2022/06/22 06:59:29;;;;;;;12.25;8.32;;;17.20;99.90;;;;;;6176557;23;20020;-91
2022/06/22 07:02:12;;;;;;;10.50;8.40;;;17.30;99.90;;;;;;6169350;23;20044;-90
2022/06/22 07:04:38;;;;;;;8.38;6.97;;;17.60;99.90;;;;;;6147990;23;20054;-91
2022/06/22 07:07:25;;;;;;;9.65;7.35;;;17.60;99.90;;;;;;6119097;23;20104;-92
2022/06/22 07:09:57;;;;;;;10.85;7.78;;;17.90;99.90;;;;;;6164950;23;20034;-90
2022/06/22 07:12:42;;;;;;;7.43;5.63;;;18.10;99.90;;;;;;6157215;23;20095;-94
2022/06/22 07:15:31;;;;;;;;;;;;;;;;;;;;;
2022/06/22 07:18:15;;;;;;;8.27;7.40;;;18.30;99.90;;;;;;6203091;23;20040;-91
2022/06/22 07:24:51;;;;;;;8.98;6.93;;;18.50;99.90;;;;;;6112116;23;20018;-92
2022/06/22 07:27:39;;;;;;;7.38;6.38;;;18.40;99.90;;;;;;6087326;23;20015;-94
2022/06/22 07:30:24;;;;;;;10.20;6.32;;;18.60;99.90;;;;;;6158129;23;20012;-93
2022/06/22 07:33:07;;;;;;;10.30;7.05;;;18.50;99.90;;;;;;6183609;23;20008;-93
2022/06/22 07:35:49;;;;;;;8.55;6.63;;;18.80;99.90;;;;;;6178123;23;20024;-93
2022/06/22 07:38:26;;;;;;;8.25;6.30;;;18.50;99.90;;;;;;6184011;23;20013;-91
2022/06/22 07:41:24;;;;;;;9.93;6.13;;;18.80;99.90;;;;;;6185592;23;20012;-96
2022/06/22 07:44:04;;;;;;;9.23;5.72;;;18.90;99.90;;;;;;6180395;23;20043;-94
2022/06/22 07:46:42;;;;;;;8.75;5.78;;;18.90;99.90;;;;;;6179006;23;20455;-95
2022/06/22 07:49:18;;;;;;;8.93;5.40;;;19.00;99.90;;;;;;6179612;23;20016;-93
2022/06/22 07:51:52;;;;;;;8.75;5.40;;;19.00;99.90;;;;;;6191402;23;20016;-94
2022/06/22 07:54:29;;;;;;;7.55;5.00;;;18.70;99.90;;;;;;6178378;23;20382;-94
2022/06/22 07:57:17;;;;;;;7.15;4.93;;;19.10;99.90;;;;;;6178930;23;20027;-92
2022/06/22 07:59:44;;;;;;;7.40;5.50;;;19.10;99.90;;;;;;6184096;23;20016;-93
2022/06/22 08:02:56;;;;;;;9.02;5.05;;;19.20;99.90;;;;;;6178155;23;20008;-94
2022/06/22 08:05:34;;;;;;;8.32;5.47;;;18.60;99.90;;;;;;6182932;23;20013;-92
2022/06/22 08:08:34;;;;;;;5.85;4.60;;;18.80;99.90;;;;;;6185856;23;20052;-91
2022/06/22 08:11:35;;;;;;;7.53;4.35;;;18.90;99.90;;;;;;6180715;23;20024;-92
2022/06/22 08:14:27;;;;;;;6.68;3.58;;;19.00;99.90;;;;;;6149734;23;20045;-92
2022/06/22 08:16:59;;;;;;;6.47;3.72;;;19.00;99.90;;;;;;6184103;23;20009;-91
2022/06/22 08:19:29;;;;;;;7.07;3.60;;;19.20;99.90;;;;;;6183720;23;20012;-92
2022/06/22 08:22:04;;;;;;;5.50;3.78;;;19.20;99.90;;;;;;6175424;23;20016;-92
2022/06/22 08:24:37;;;;;;;6.60;3.80;;;19.40;99.90;;;;;;6180499;23;20020;-92
2022/06/22 08:27:16;;;;;;;5.22;3.75;;;19.50;99.90;;;;;;6190513;23;20024;-93
2022/06/22 08:29:47;;;;;;;7.55;4.00;;;19.20;99.90;;;;;;6191171;23;20040;-92
2022/06/22 08:32:15;;;;;;;6.93;3.83;;;19.40;99.90;;;;;;6187811;23;20012;-93
2022/06/22 08:34:52;;;;;;;5.78;3.88;;;19.70;99.90;;;;;;6190307;23;19996;-92
2022/06/22 08:37:50;;;;;;;8.90;4.50;;;19.90;99.90;;;;;;6189837;23;20013;-92
2022/06/22 08:40:51;;;;;;;7.93;4.28;;;20.40;99.90;;;;;;6140635;23;20009;-90
2022/06/22 08:43:44;;;;;;;6.97;4.30;;;19.90;99.90;;;;;;6181696;23;20064;-92
2022/06/22 08:46:35;;;;;;;7.05;4.80;;;20.00;99.90;;;;;;6178407;23;20093;-91
2022/06/22 08:49:20;;;;;;;8.68;5.45;;;19.70;99.90;;;;;;6180969;23;20455;-92
2022/06/22 08:51:55;;;;;;;8.18;4.53;;;20.30;99.90;;;;;;6188586;23;20012;-91
2022/06/22 08:54:43;;;;;;;7.38;4.68;;;20.60;99.90;;;;;;6185890;23;20016;-90
2022/06/22 08:57:38;;;;;;;8.82;4.53;;;20.20;99.90;;;;;;6175848;23;20040;-92
2022/06/22 09:00:04;;;;;;;7.90;3.53;;;20.40;99.90;;;;;;6183906;23;20024;-93
2022/06/22 09:03:04;;;;;;;7.13;3.67;;;20.50;99.90;;;;;;6179683;23;20069;-92
2022/06/22 09:05:52;;;;;;;8.75;4.70;;;20.60;99.90;;;;;;6179301;23;20012;-93
2022/06/22 09:08:27;;;;;;;15.52;5.25;;;20.50;99.90;;;;;;6184393;23;20000;-91
2022/06/22 09:11:06;;;;;;;8.63;4.72;;;20.80;99.90;;;;;;6183664;23;20012;-93
2022/06/22 09:13:53;;;;;;;8.45;5.00;;;20.90;99.90;;;;;;6182453;23;20016;-93
2022/06/22 09:16:44;;;;;;;7.55;4.90;;;21.40;99.90;;;;;;6190222;23;20016;-92
2022/06/22 09:19:15;;;;;;;7.20;4.40;;;21.60;99.90;;;;;;6188827;23;20119;-92
2022/06/22 09:21:59;;;;;;;7.85;4.55;;;21.90;99.90;;;;;;6171636;23;20096;-92
2022/06/22 09:24:44;;;;;;;7.60;4.32;;;21.90;99.90;;;;;;6177016;23;20335;-91
2022/06/22 09:27:38;;;;;;;7.68;4.88;;;22.30;99.90;;;;;;6169599;23;20013;-93
2022/06/22 09:30:22;;;;;;;7.43;3.80;;;22.40;99.90;;;;;;6176864;23;20046;-94
2022/06/22 09:32:56;;;;;;;;;;;22.90;99.90;;;;;;6174573;23;20020;-92
2022/06/22 09:35:43;;;;;;;6.60;3.90;;;22.70;99.90;;;;;;6177530;23;19916;-93
2022/06/22 09:38:26;;;;;;;5.65;3.05;;;22.90;99.90;;;;;;6175807;23;20382;-95
2022/06/22 09:41:37;;;;;;;6.57;3.50;;;22.60;99.90;;;;;;6177922;23;20013;-95
2022/06/22 09:44:06;;;;;;;6.93;3.50;;;23.00;99.90;;;;;;6177162;23;20016;-96
2022/06/22 09:47:08;;;;;;;8.20;3.58;;;23.50;99.90;;;;;;6179388;23;20339;-96
2022/06/22 09:50:26;;;;;;;4.32;3.45;;;23.80;99.90;;;;;;6191618;23;20016;-96
2022/06/22 09:53:20;;;;;;;5.03;3.78;;;23.60;99.90;;;;;;6178476;23;20324;-95
2022/06/22 09:56:24;;;;;;;6.47;3.40;;;23.60;99.90;;;;;;6179181;23;20096;-95
2022/06/22 09:59:26;;;;;;;5.32;3.42;;;23.50;99.90;;;;;;6171638;23;20031;-93
2022/06/22 10:02:22;;;;;;;4.93;3.30;;;23.90;99.90;;;;;;6173150;23;20012;-96
2022/06/22 10:05:31;;;;;;;5.60;3.30;;;23.80;99.90;;;;;;6195686;23;20013;-93
2022/06/22 10:08:05;;;;;;;7.95;3.53;;;23.70;99.90;;;;;;6103148;23;20041;-93
2022/06/22 10:11:04;;;;;;;5.40;3.20;;;23.00;99.90;;;;;;6164514;23;20012;-93
2022/06/22 10:14:48;;;;;;;4.93;2.90;;;22.90;99.90;;;;;;6218286;23;20016;-94
2022/06/22 10:17:36;;;;;;;8.82;3.60;;;23.00;99.90;;;;;;6184732;23;20091;-91
2022/06/22 10:20:40;;;;;;;5.78;3.00;;;23.00;99.90;;;;;;6181153;23;20051;-93
2022/06/22 10:23:09;;;;;;;7.67;3.13;;;23.70;99.90;;;;;;6186518;23;20063;-91
2022/06/22 10:26:01;;;;;;;4.72;3.05;;;24.40;99.90;;;;;;6176306;23;20034;-92
2022/06/22 10:28:40;;;;;;;6.30;3.08;;;24.60;99.90;;;;;;6177605;23;20044;-92
2022/06/22 10:31:33;;;;;;;5.90;2.90;;;25.00;99.90;;;;;;6176178;23;20016;-93
2022/06/22 10:34:27;;;;;;;5.28;3.22;;;24.40;99.90;;;;;;6172644;23;20455;-93
2022/06/22 10:37:05;;;;;;;6.45;3.05;;;23.90;99.90;;;;;;6175722;23;20469;-93
2022/06/22 10:39:38;;;;;;;8.32;4.15;;;23.70;99.90;;;;;;6174848;23;20016;-90
2022/06/22 10:47:05;;;;;;;5.57;3.60;;;24.10;99.90;;;;;;6077331;23;20024;-93
2022/06/22 10:50:08;;;;;;;7.78;4.03;;;24.20;99.90;;;;;;6121662;23;20236;-92
2022/06/22 10:53:13;;;;;;;7.68;3.67;;;24.40;99.90;;;;;;6173728;23;20324;-90
2022/06/22 10:55:58;;;;;;;6.45;3.78;;;24.50;99.90;;;;;;6142684;23;20021;-92
2022/06/22 10:58:30;;;;;;;8.82;4.28;;;24.50;99.90;;;;;;6172044;23;20052;-91
2022/06/22 11:01:40;;;;;;;4.93;3.83;;;24.30;99.90;;;;;;6171361;23;20024;-92
2022/06/22 11:04:41;;;;;;;5.10;3.58;;;24.70;99.90;;;;;;6172273;23;20008;-94
2022/06/22 11:07:50;;;;;;;6.38;3.90;;;23.50;99.90;;;;;;6186887;23;19996;-92
2022/06/22 11:11:14;;;;;;;5.07;3.55;;;24.00;99.90;;;;;;6197462;23;20359;-90
2022/06/22 11:14:20;;;;;;;5.93;4.00;;;24.30;99.90;;;;;;6175499;23;20024;-92
2022/06/22 11:17:11;;;;;;;6.07;3.53;;;24.70;99.90;;;;;;6060615;23;20018;-89
2022/06/22 11:20:01;;;;;;;4.55;3.45;;;25.40;99.90;;;;;;6102135;23;20039;-91
2022/06/22 11:22:46;;;;;;;6.65;4.00;;;24.60;99.90;;;;;;6189061;23;20012;-90
2022/06/22 11:32:26;;;;;;;5.55;3.58;;;24.40;99.90;;;;;;6095535;23;20019;-90
2022/06/22 11:35:17;;;;;;;5.07;3.30;;;24.90;99.90;;;;;;6167380;23;20017;-90
2022/06/22 11:38:05;;;;;;;5.07;3.45;;;25.10;99.90;;;;;;6168428;23;20032;-90
2022/06/22 11:40:52;;;;;;;5.70;3.60;;;24.80;99.90;;;;;;6170102;23;20030;-92
2022/06/22 11:43:43;;;;;;;4.35;3.15;;;25.30;99.90;;;;;;6170818;23;20023;-94
2022/06/22 11:46:28;;;;;;;7.88;4.03;;;25.40;99.90;;;;;;6169294;23;20013;-91
2022/06/22 11:49:19;;;;;;;7.00;4.07;;;24.80;99.90;;;;;;6172274;23;20012;-93
2022/06/22 11:52:07;;;;;;;5.40;3.40;;;25.30;99.90;;;;;;6173702;23;20338;-91
2022/06/22 11:54:50;;;;;;;5.05;3.55;;;25.50;99.90;;;;;;6182276;23;20024;-90
2022/06/22 11:57:35;;;;;;;;;;;26.00;99.90;;;;;;6175981;23;20012;-91
2022/06/22 12:00:49;;;;;;;4.28;2.97;;;26.20;99.90;;;;;;6167721;23;19915;-90
2022/06/22 12:03:15;;;;;;;6.28;4.13;;;25.80;92.20;;;;;;6100673;23;20014;-92
2022/06/22 12:06:09;;;;;;;4.53;2.97;;;25.90;99.90;;;;;;6156483;23;20342;-92
2022/06/22 12:09:00;;;;;;;7.25;3.80;;;25.90;99.90;;;;;;6170442;23;20012;-91
2022/06/22 12:11:44;;;;;;;5.60;3.75;;;25.40;95.10;;;;;;6170797;23;20351;-91
2022/06/22 12:15:08;;;;;;;7.68;3.63;;;25.10;98.40;;;;;;6168793;23;20096;-91
2022/06/22 12:17:55;;;;;;;5.82;3.63;;;24.50;99.80;;;;;;6167379;23;20009;-91
2022/06/22 12:20:42;;;;;;;6.97;3.30;;;23.80;99.20;;;;;;6174640;23;20016;-93
2022/06/22 12:23:45;;;;;;;5.18;3.20;;;24.00;99.90;;;;;;6171699;23;20020;-92
2022/06/22 12:27:07;;;;;;;6.45;3.00;;;24.60;99.90;;;;;;6170905;23;20409;-92
2022/06/22 12:29:48;;;;;;;5.20;3.03;;;25.00;99.90;;;;;;6170102;23;20214;-92
2022/06/22 12:32:36;;;;;;;6.82;3.17;;;25.10;97.10;;;;;;6172927;23;20027;-91
2022/06/22 12:35:36;;;;;;;3.92;2.95;;;25.20;98.30;;;;;;6171711;23;20020;-91
2022/06/22 12:38:20;;;;;;;6.78;3.55;;;25.40;97.00;;;;;;6172620;23;20036;-94
2022/06/22 12:41:20;;;;;;;5.93;3.00;;;25.70;93.10;;;;;;6174469;23;20059;-91
2022/06/22 12:43:52;;;;;;;6.28;2.80;;;25.40;94.10;;;;;;6173032;23;20016;-92
2022/06/22 12:46:37;;;;;;;5.57;3.38;;;25.80;99.90;;;;;;6173403;23;20459;-93
2022/06/22 12:49:21;;;;;;;5.47;3.30;;;26.20;90.60;;;;;;6185022;23;20016;-92
2022/06/22 12:52:25;;;;;;;10.13;3.30;;;25.60;90.30;;;;;;6205148;23;20016;-93
2022/06/22 12:55:12;;;;;;;5.82;3.10;;;25.20;80.00;;;;;;6171630;23;20012;-92
2022/06/22 12:58:34;;;;;;;4.78;2.70;;;25.50;76.90;;;;;;6182463;23;20003;-91
2022/06/22 13:01:04;;;;;;;3.83;2.72;;;25.10;66.40;;;;;;6177031;23;20029;-93
2022/06/22 13:03:41;;;;;;;6.43;3.33;;;25.20;81.20;;;;;;6140704;23;20016;-90
2022/06/22 13:06:10;;;;;;;4.38;2.70;;;24.70;75.10;;;;;;6164714;23;20016;-91
2022/06/22 13:08:38;;;;;;;6.60;3.20;;;24.90;78.50;;;;;;6139050;23;20440;-92
2022/06/22 13:11:12;;;;;;;7.60;3.25;;;25.70;82.90;;;;;;6139271;23;20092;-91
2022/06/22 13:14:05;;;;;;;4.75;3.08;;;24.70;78.30;;;;;;6166470;23;20017;-91
2022/06/22 13:16:49;;;;;;;6.70;3.03;;;25.20;95.60;;;;;;6164122;23;20019;-91
2022/06/22 13:19:26;;;;;;;4.75;3.17;;;25.40;91.40;;;;;;6164958;23;20017;-90
2022/06/22 13:22:17;;;;;;;5.72;3.08;;;25.60;86.30;;;;;;6165112;23;20013;-90
2022/06/22 13:25:08;;;;;;;5.25;3.13;;;25.20;80.20;;;;;;6132910;23;20013;-90
2022/06/22 13:28:04;;;;;;;5.32;3.10;;;25.10;68.50;;;;;;6171406;23;20028;-90
2022/06/22 13:30:47;;;;;;;6.65;3.10;;;25.50;77.50;;;;;;6170181;23;20016;-93
2022/06/22 13:33:42;;;;;;;8.65;3.50;;;25.40;77.20;;;;;;6164456;23;20017;-89
2022/06/22 13:36:24;;;;;;;5.45;3.50;;;26.40;53.40;;;;;;6155611;23;20017;-90
2022/06/22 13:39:38;;;;;;;4.35;2.67;;;26.30;65.20;;;;;;6171580;23;20019;-91
2022/06/22 13:42:42;;;;;;;7.55;3.50;;;25.70;71.50;;;;;;6169955;23;20021;-90
2022/06/22 13:45:32;;;;;;;6.30;2.95;;;26.50;74.60;;;;;;6168539;23;20021;-91
2022/06/22 13:48:28;;;;;;;4.05;2.90;;;26.60;74.70;;;;;;6170470;23;20017;-90
2022/06/22 13:51:18;;;;;;;5.78;3.58;;;26.50;49.40;;;;;;6172915;23;20079;-92
2022/06/22 13:54:26;;;;;;;6.93;3.80;;;26.50;81.60;;;;;;6174349;23;20017;-91
2022/06/22 13:57:17;;;;;;;6.78;3.42;;;26.00;82.60;;;;;;6175306;23;20013;-93
2022/06/22 14:00:24;;;;;;;5.63;3.83;;;26.00;90.70;;;;;;6177979;23;20017;-92
2022/06/22 14:02:58;;;;;;;5.28;3.80;;;25.90;94.60;;;;;;6176570;23;20012;-93
2022/06/22 14:05:44;;;;;;;4.50;3.10;;;26.10;90.00;;;;;;6174703;23;20052;-92
2022/06/22 14:08:13;;;;;;;4.25;3.45;;;26.50;97.40;;;;;;6173298;23;20024;-91
2022/06/22 14:11:02;;;;;;;6.63;3.72;;;25.80;96.20;;;;;;6175506;23;20014;-93
2022/06/22 14:13:50;;;;;;;6.18;4.05;;;25.60;99.90;;;;;;6182633;23;20040;-88
2022/06/22 14:17:08;;;;;;;6.45;4.18;;;25.90;99.10;;;;;;6179358;23;20024;-90
2022/06/22 14:27:35;;;;;;;7.13;4.28;;;25.10;99.90;;;;;;6190389;23;20051;-94
2022/06/22 14:30:55;;;;;;;7.78;4.28;;;25.80;99.90;;;;;;6187042;23;20028;-91
2022/06/22 14:33:40;;;;;;;7.68;4.07;;;25.60;99.90;;;;;;6186921;23;20025;-93
2022/06/22 14:36:40;;;;;;;5.57;3.72;;;25.70;99.90;;;;;;6179111;23;20017;-92
2022/06/22 14:39:25;;;;;;;6.43;3.63;;;25.40;99.90;;;;;;6182906;23;20017;-92
2022/06/22 14:42:03;;;;;;;6.85;3.83;;;25.30;99.90;;;;;;6171205;23;20021;-91
2022/06/22 14:45:03;;;;;;;5.57;3.53;;;24.90;99.90;;;;;;6169440;23;20020;-92